sensor_id;sensor_type;location;lat;lon;timestamp;pressure;altitude;pressure_sealevel;temperature;humidity
49827;BME280;35715;51.570;6.036;2022-07-10T00:00:25;102609.56;;;19.11;52.35
49827;BME280;35715;51.570;6.036;2022-07-10T00:02:50;102610.44;;;19.12;52.66
49827;BME280;35715;51.570;6.036;2022-07-10T00:05:19;102612.25;;;19.13;52.50
49827;BME280;35715;51.570;6.036;2022-07-10T00:07:46;102609.56;;;19.11;52.65
49827;BME280;35715;51.570;6.036;2022-07-10T00:10:11;102609.56;;;19.11;52.50
49827;BME280;35715;51.570;6.036;2022-07-10T00:12:37;102618.09;;;19.09;52.62
49827;BME280;35715;51.570;6.036;2022-07-10T00:15:04;102607.47;;;19.06;52.97
49827;BME280;35715;51.570;6.036;2022-07-10T00:17:34;102599.59;;;19.06;52.64
49827;BME280;35715;51.570;6.036;2022-07-10T00:20:00;102604.03;;;19.07;52.69
49827;BME280;35715;51.570;6.036;2022-07-10T00:22:26;102608.38;;;19.06;52.59
49827;BME280;35715;51.570;6.036;2022-07-10T00:24:51;102605.69;;;19.05;53.02
49827;BME280;35715;51.570;6.036;2022-07-10T00:27:21;102600.25;;;19.02;53.26
49827;BME280;35715;51.570;6.036;2022-07-10T00:29:46;102603.75;;;19.02;53.21
49827;BME280;35715;51.570;6.036;2022-07-10T00:32:12;102595.13;;;19.03;53.13
49827;BME280;35715;51.570;6.036;2022-07-10T00:34:37;102600.25;;;19.02;52.88
49827;BME280;35715;51.570;6.036;2022-07-10T00:37:03;102597.72;;;19.03;53.09
49827;BME280;35715;51.570;6.036;2022-07-10T00:39:29;102606.56;;;19.05;53.28
49827;BME280;35715;51.570;6.036;2022-07-10T00:41:55;102597.00;;;19.06;53.13
49827;BME280;35715;51.570;6.036;2022-07-10T00:44:20;102597.00;;;19.06;53.27
49827;BME280;35715;51.570;6.036;2022-07-10T00:46:50;102591.66;;;19.04;53.72
49827;BME280;35715;51.570;6.036;2022-07-10T00:49:16;102597.81;;;19.05;53.06
49827;BME280;35715;51.570;6.036;2022-07-10T00:51:41;102595.22;;;19.05;53.83
49827;BME280;35715;51.570;6.036;2022-07-10T00:54:07;102587.97;;;19.01;53.80
49827;BME280;35715;51.570;6.036;2022-07-10T00:56:44;102586.06;;;18.98;53.80
49827;BME280;35715;51.570;6.036;2022-07-10T00:59:10;102583.44;;;18.98;53.65
49827;BME280;35715;51.570;6.036;2022-07-10T01:01:36;102574.72;;;18.97;54.11
49827;BME280;35715;51.570;6.036;2022-07-10T01:04:01;102578.13;;;18.96;53.58
49827;BME280;35715;51.570;6.036;2022-07-10T01:06:35;102574.34;;;18.91;53.67
49827;BME280;35715;51.570;6.036;2022-07-10T01:09:01;102568.91;;;18.88;53.73
49827;BME280;35715;51.570;6.036;2022-07-10T01:11:26;102569.41;;;18.83;53.88
49827;BME280;35715;51.570;6.036;2022-07-10T01:13:51;102564.97;;;18.82;53.95
49827;BME280;35715;51.570;6.036;2022-07-10T01:16:23;102563.88;;;18.78;53.86
49827;BME280;35715;51.570;6.036;2022-07-10T01:18:49;102563.50;;;18.72;53.90
49827;BME280;35715;51.570;6.036;2022-07-10T01:21:31;102554.19;;;18.62;54.28
49827;BME280;35715;51.570;6.036;2022-07-10T01:23:58;102549.41;;;18.55;54.27
49827;BME280;35715;51.570;6.036;2022-07-10T01:26:23;102556.03;;;18.50;54.77
49827;BME280;35715;51.570;6.036;2022-07-10T01:28:51;102557.56;;;18.46;54.83
49827;BME280;35715;51.570;6.036;2022-07-10T01:31:18;102552.03;;;18.41;54.74
49827;BME280;35715;51.570;6.036;2022-07-10T01:33:44;102551.03;;;18.39;54.94
49827;BME280;35715;51.570;6.036;2022-07-10T01:36:10;102552.75;;;18.39;55.13
49827;BME280;35715;51.570;6.036;2022-07-10T01:38:36;102560.78;;;18.42;55.36
49827;BME280;35715;51.570;6.036;2022-07-10T01:41:01;102563.38;;;18.42;55.12
49827;BME280;35715;51.570;6.036;2022-07-10T01:43:27;102555.34;;;18.39;55.25
49827;BME280;35715;51.570;6.036;2022-07-10T01:45:52;102544.81;;;18.37;55.59
49827;BME280;35715;51.570;6.036;2022-07-10T01:48:17;102530.94;;;18.38;55.78
49827;BME280;35715;51.570;6.036;2022-07-10T01:50:43;102535.97;;;18.35;55.66
49827;BME280;35715;51.570;6.036;2022-07-10T01:53:08;102540.09;;;18.32;55.76
49827;BME280;35715;51.570;6.036;2022-07-10T01:55:34;102540.81;;;18.29;55.96
49827;BME280;35715;51.570;6.036;2022-07-10T01:57:59;102544.31;;;18.30;56.22
49827;BME280;35715;51.570;6.036;2022-07-10T02:00:25;102542.50;;;18.29;56.25
49827;BME280;35715;51.570;6.036;2022-07-10T02:02:50;102533.50;;;18.23;56.52
49827;BME280;35715;51.570;6.036;2022-07-10T02:05:36;102534.00;;;18.18;56.52
49827;BME280;35715;51.570;6.036;2022-07-10T02:08:02;102533.09;;;18.17;56.23
49827;BME280;35715;51.570;6.036;2022-07-10T02:10:29;102534.00;;;18.18;56.63
49827;BME280;35715;51.570;6.036;2022-07-10T02:12:54;102535.81;;;18.19;56.22
49827;BME280;35715;51.570;6.036;2022-07-10T02:15:21;102534.69;;;18.15;56.65
49827;BME280;35715;51.570;6.036;2022-07-10T02:17:46;102550.16;;;18.12;56.38
49827;BME280;35715;51.570;6.036;2022-07-10T02:20:12;102535.13;;;18.08;56.75
49827;BME280;35715;51.570;6.036;2022-07-10T02:22:37;102535.41;;;18.13;56.89
49827;BME280;35715;51.570;6.036;2022-07-10T02:25:03;102538.94;;;18.13;56.85
49827;BME280;35715;51.570;6.036;2022-07-10T02:27:30;102539.03;;;18.15;56.74
49827;BME280;35715;51.570;6.036;2022-07-10T02:29:55;102531.97;;;18.14;56.99
49827;BME280;35715;51.570;6.036;2022-07-10T02:32:21;102535.41;;;18.13;56.81
49827;BME280;35715;51.570;6.036;2022-07-10T02:34:47;102531.88;;;18.12;56.76
49827;BME280;35715;51.570;6.036;2022-07-10T02:37:13;102537.53;;;18.05;56.79
49827;BME280;35715;51.570;6.036;2022-07-10T02:39:38;102537.94;;;17.98;56.98
49827;BME280;35715;51.570;6.036;2022-07-10T02:42:04;102530.41;;;17.89;56.99
49827;BME280;35715;51.570;6.036;2022-07-10T02:44:29;102529.78;;;17.80;56.95
49827;BME280;35715;51.570;6.036;2022-07-10T02:46:59;102525.78;;;17.71;57.46
49827;BME280;35715;51.570;6.036;2022-07-10T02:49:24;102531.28;;;17.63;57.33
49827;BME280;35715;51.570;6.036;2022-07-10T02:51:49;102534.28;;;17.55;57.56
49827;BME280;35715;51.570;6.036;2022-07-10T02:54:15;102526.16;;;17.51;57.71
49827;BME280;35715;51.570;6.036;2022-07-10T02:56:46;102527.16;;;17.53;57.62
49827;BME280;35715;51.570;6.036;2022-07-10T02:59:11;102529.16;;;17.44;57.92
49827;BME280;35715;51.570;6.036;2022-07-10T03:01:36;102526.25;;;17.52;57.59
49827;BME280;35715;51.570;6.036;2022-07-10T03:04:02;102523.97;;;17.57;58.13
49827;BME280;35715;51.570;6.036;2022-07-10T03:06:31;102527.66;;;17.61;57.74
49827;BME280;35715;51.570;6.036;2022-07-10T03:08:57;102528.59;;;17.61;57.65
49827;BME280;35715;51.570;6.036;2022-07-10T03:11:22;102526.97;;;17.63;57.71
49827;BME280;35715;51.570;6.036;2022-07-10T03:13:47;102520.66;;;17.60;57.60
49827;BME280;35715;51.570;6.036;2022-07-10T03:16:14;102521.53;;;17.60;57.76
49827;BME280;35715;51.570;6.036;2022-07-10T03:18:39;102528.19;;;17.55;57.75
49827;BME280;35715;51.570;6.036;2022-07-10T03:21:05;102520.34;;;17.55;57.73
49827;BME280;35715;51.570;6.036;2022-07-10T03:23:31;102525.88;;;17.60;57.82
49827;BME280;35715;51.570;6.036;2022-07-10T03:26:04;102527.47;;;17.58;58.01
49827;BME280;35715;51.570;6.036;2022-07-10T03:28:29;102523.97;;;17.57;57.83
49827;BME280;35715;51.570;6.036;2022-07-10T03:30:56;102522.25;;;17.58;58.24
49827;BME280;35715;51.570;6.036;2022-07-10T03:33:21;102515.22;;;17.56;58.08
49827;BME280;35715;51.570;6.036;2022-07-10T03:35:47;102508.00;;;17.52;58.19
49827;BME280;35715;51.570;6.036;2022-07-10T03:38:13;102514.63;;;17.47;58.32
49827;BME280;35715;51.570;6.036;2022-07-10T03:40:38;102511.72;;;17.43;58.57
49827;BME280;35715;51.570;6.036;2022-07-10T03:43:04;102507.78;;;17.36;58.39
49827;BME280;35715;51.570;6.036;2022-07-10T03:45:32;102504.06;;;17.32;58.58
49827;BME280;35715;51.570;6.036;2022-07-10T03:47:57;102508.47;;;17.33;59.14
49827;BME280;35715;51.570;6.036;2022-07-10T03:50:23;102497.34;;;17.36;59.18
49827;BME280;35715;51.570;6.036;2022-07-10T03:52:48;102498.66;;;17.43;59.14
49827;BME280;35715;51.570;6.036;2022-07-10T03:55:19;102501.69;;;17.49;58.82
49827;BME280;35715;51.570;6.036;2022-07-10T03:57:44;102509.63;;;17.50;58.90
49827;BME280;35715;51.570;6.036;2022-07-10T04:00:23;102499.16;;;17.50;59.04
49827;BME280;35715;51.570;6.036;2022-07-10T04:02:55;102502.69;;;17.51;58.94
49827;BME280;35715;51.570;6.036;2022-07-10T04:05:25;102504.38;;;17.50;59.08
49827;BME280;35715;51.570;6.036;2022-07-10T04:07:51;102519.22;;;17.51;59.20
49827;BME280;35715;51.570;6.036;2022-07-10T04:10:17;102518.44;;;17.52;58.66
49827;BME280;35715;51.570;6.036;2022-07-10T04:12:43;102509.91;;;17.55;59.30
49827;BME280;35715;51.570;6.036;2022-07-10T04:15:10;102508.19;;;17.55;59.24
49827;BME280;35715;51.570;6.036;2022-07-10T04:17:36;102512.81;;;17.60;59.17
49827;BME280;35715;51.570;6.036;2022-07-10T04:20:01;102513.81;;;17.62;59.18
49827;BME280;35715;51.570;6.036;2022-07-10T04:22:27;102510.41;;;17.63;59.15
49827;BME280;35715;51.570;6.036;2022-07-10T04:24:53;102513.91;;;17.63;59.47
49827;BME280;35715;51.570;6.036;2022-07-10T04:27:19;102513.03;;;17.63;59.52
49827;BME280;35715;51.570;6.036;2022-07-10T04:29:44;102515.63;;;17.63;59.59
49827;BME280;35715;51.570;6.036;2022-07-10T04:32:10;102511.41;;;17.65;59.29
49827;BME280;35715;51.570;6.036;2022-07-10T04:34:35;102504.59;;;17.67;59.47
49827;BME280;35715;51.570;6.036;2022-07-10T04:37:06;102507.31;;;17.68;59.14
49827;BME280;35715;51.570;6.036;2022-07-10T04:39:34;102509.19;;;17.71;59.30
49827;BME280;35715;51.570;6.036;2022-07-10T04:42:01;102507.13;;;17.65;59.52
49827;BME280;35715;51.570;6.036;2022-07-10T04:44:27;102517.75;;;17.68;59.47
49827;BME280;35715;51.570;6.036;2022-07-10T04:46:56;102518.66;;;17.69;59.32
49827;BME280;35715;51.570;6.036;2022-07-10T04:49:22;102511.69;;;17.69;59.14
49827;BME280;35715;51.570;6.036;2022-07-10T04:51:48;102519.53;;;17.69;59.11
49827;BME280;35715;51.570;6.036;2022-07-10T04:54:13;102523.28;;;17.73;59.49
49827;BME280;35715;51.570;6.036;2022-07-10T04:56:40;102522.53;;;17.76;59.56
49827;BME280;35715;51.570;6.036;2022-07-10T04:59:05;102523.47;;;17.76;59.66
49827;BME280;35715;51.570;6.036;2022-07-10T05:01:31;102521.16;;;17.81;59.47
49827;BME280;35715;51.570;6.036;2022-07-10T05:03:56;102521.16;;;17.81;59.50
49827;BME280;35715;51.570;6.036;2022-07-10T05:06:24;102522.53;;;17.76;59.18
49827;BME280;35715;51.570;6.036;2022-07-10T05:08:49;102517.94;;;17.71;59.62
49827;BME280;35715;51.570;6.036;2022-07-10T05:11:14;102515.94;;;17.67;59.83
49827;BME280;35715;51.570;6.036;2022-07-10T05:13:40;102521.44;;;17.72;59.84
49827;BME280;35715;51.570;6.036;2022-07-10T05:16:07;102513.53;;;17.84;60.15
49827;BME280;35715;51.570;6.036;2022-07-10T05:18:33;102512.44;;;17.94;59.69
49827;BME280;35715;51.570;6.036;2022-07-10T05:20:58;102509.91;;;17.95;59.65
49827;BME280;35715;51.570;6.036;2022-07-10T05:23:23;102516.25;;;17.99;59.71
49827;BME280;35715;51.570;6.036;2022-07-10T05:25:49;102516.25;;;17.99;59.51
49827;BME280;35715;51.570;6.036;2022-07-10T05:28:14;102522.38;;;17.99;59.64
49827;BME280;35715;51.570;6.036;2022-07-10T05:30:41;102516.56;;;18.03;59.70
49827;BME280;35715;51.570;6.036;2022-07-10T05:33:06;102523.84;;;18.09;59.57
49827;BME280;35715;51.570;6.036;2022-07-10T05:35:32;102518.03;;;18.13;59.66
49827;BME280;35715;51.570;6.036;2022-07-10T05:37:58;102514.72;;;18.16;59.46
49827;BME280;35715;51.570;6.036;2022-07-10T05:40:24;102531.56;;;18.21;59.40
49827;BME280;35715;51.570;6.036;2022-07-10T05:42:49;102527.28;;;18.21;59.37
49827;BME280;35715;51.570;6.036;2022-07-10T05:45:14;102520.63;;;18.13;59.50
49827;BME280;35715;51.570;6.036;2022-07-10T05:47:40;102514.63;;;18.14;59.57
49827;BME280;35715;51.570;6.036;2022-07-10T05:50:05;102518.22;;;18.16;59.38
49827;BME280;35715;51.570;6.036;2022-07-10T05:52:31;102520.22;;;18.20;59.35
49827;BME280;35715;51.570;6.036;2022-07-10T05:54:57;102525.56;;;18.22;59.26
49827;BME280;35715;51.570;6.036;2022-07-10T05:57:30;102524.47;;;18.18;59.31
49827;BME280;35715;51.570;6.036;2022-07-10T05:59:56;102518.41;;;18.19;59.36
49827;BME280;35715;51.570;6.036;2022-07-10T06:02:22;102521.84;;;18.18;59.35
49827;BME280;35715;51.570;6.036;2022-07-10T06:04:49;102517.44;;;18.17;59.32
49827;BME280;35715;51.570;6.036;2022-07-10T06:07:26;102524.25;;;18.15;59.52
49827;BME280;35715;51.570;6.036;2022-07-10T06:09:52;102521.13;;;18.21;59.53
49827;BME280;35715;51.570;6.036;2022-07-10T06:12:17;102530.88;;;18.23;59.54
49827;BME280;35715;51.570;6.036;2022-07-10T06:14:43;102524.47;;;18.18;59.45
49827;BME280;35715;51.570;6.036;2022-07-10T06:17:17;102527.97;;;18.19;59.38
49827;BME280;35715;51.570;6.036;2022-07-10T06:19:43;102536.91;;;18.22;59.49
49827;BME280;35715;51.570;6.036;2022-07-10T06:22:08;102537.09;;;18.25;59.48
49827;BME280;35715;51.570;6.036;2022-07-10T06:24:52;102532.06;;;18.29;59.48
49827;BME280;35715;51.570;6.036;2022-07-10T06:27:18;102527.22;;;18.35;59.43
49827;BME280;35715;51.570;6.036;2022-07-10T06:29:44;102527.69;;;18.42;59.18
49827;BME280;35715;51.570;6.036;2022-07-10T06:32:09;102529.00;;;18.49;58.86
49827;BME280;35715;51.570;6.036;2022-07-10T06:34:35;102521.06;;;18.48;58.76
49827;BME280;35715;51.570;6.036;2022-07-10T06:37:05;102525.41;;;18.47;58.75
49827;BME280;35715;51.570;6.036;2022-07-10T06:39:34;102533.91;;;18.58;59.45
49827;BME280;35715;51.570;6.036;2022-07-10T06:42:00;102527.03;;;18.60;58.70
49827;BME280;35715;51.570;6.036;2022-07-10T06:44:25;102532.47;;;18.63;58.75
49827;BME280;35715;51.570;6.036;2022-07-10T06:46:53;102531.94;;;18.69;58.75
49827;BME280;35715;51.570;6.036;2022-07-10T06:49:36;102518.25;;;18.73;58.94
49827;BME280;35715;51.570;6.036;2022-07-10T06:52:02;102526.56;;;18.80;58.98
49827;BME280;35715;51.570;6.036;2022-07-10T06:54:27;102525.16;;;18.86;58.98
49827;BME280;35715;51.570;6.036;2022-07-10T06:56:53;102526.06;;;18.86;58.45
49827;BME280;35715;51.570;6.036;2022-07-10T06:59:18;102529.97;;;18.93;58.38
49827;BME280;35715;51.570;6.036;2022-07-10T07:01:44;102526.16;;;19.03;58.44
49827;BME280;35715;51.570;6.036;2022-07-10T07:04:09;102524.19;;;19.13;58.11
49827;BME280;35715;51.570;6.036;2022-07-10T07:06:35;102536.66;;;19.18;57.92
49827;BME280;35715;51.570;6.036;2022-07-10T07:09:00;102527.75;;;19.14;57.98
49827;BME280;35715;51.570;6.036;2022-07-10T07:11:25;102528.09;;;19.20;57.96
49827;BME280;35715;51.570;6.036;2022-07-10T07:13:51;102522.25;;;19.24;58.03
49827;BME280;35715;51.570;6.036;2022-07-10T07:16:19;102529.88;;;19.36;57.69
49827;BME280;35715;51.570;6.036;2022-07-10T07:18:52;102533.69;;;19.41;57.63
49827;BME280;35715;51.570;6.036;2022-07-10T07:21:17;102532.50;;;19.51;57.42
49827;BME280;35715;51.570;6.036;2022-07-10T07:24:02;102533.13;;;19.47;57.82
49827;BME280;35715;51.570;6.036;2022-07-10T07:26:38;102543.81;;;19.35;57.72
49827;BME280;35715;51.570;6.036;2022-07-10T07:29:03;102534.84;;;19.17;58.36
49827;BME280;35715;51.570;6.036;2022-07-10T07:31:28;102533.78;;;19.13;58.76
49827;BME280;35715;51.570;6.036;2022-07-10T07:33:54;102532.97;;;19.14;59.15
49827;BME280;35715;51.570;6.036;2022-07-10T07:36:25;102542.59;;;19.15;58.67
49827;BME280;35715;51.570;6.036;2022-07-10T07:38:50;102544.06;;;19.10;58.89
49827;BME280;35715;51.570;6.036;2022-07-10T07:41:17;102532.59;;;19.08;58.93
49827;BME280;35715;51.570;6.036;2022-07-10T07:43:43;102535.31;;;19.09;59.14
49827;BME280;35715;51.570;6.036;2022-07-10T07:46:10;102535.59;;;19.14;59.22
49827;BME280;35715;51.570;6.036;2022-07-10T07:48:35;102535.94;;;19.20;59.15
49827;BME280;35715;51.570;6.036;2022-07-10T07:51:01;102532.50;;;19.21;59.20
49827;BME280;35715;51.570;6.036;2022-07-10T07:53:26;102530.72;;;19.20;58.73
49827;BME280;35715;51.570;6.036;2022-07-10T07:55:52;102527.56;;;19.26;58.64
49827;BME280;35715;51.570;6.036;2022-07-10T07:58:17;102536.41;;;19.28;58.42
49827;BME280;35715;51.570;6.036;2022-07-10T08:00:42;102535.69;;;19.30;58.69
49827;BME280;35715;51.570;6.036;2022-07-10T08:03:08;102538.56;;;19.35;58.49
49827;BME280;35715;51.570;6.036;2022-07-10T08:05:33;102535.22;;;19.38;58.77
49827;BME280;35715;51.570;6.036;2022-07-10T08:07:59;102535.50;;;19.27;58.39
49827;BME280;35715;51.570;6.036;2022-07-10T08:10:29;102538.47;;;19.33;58.62
49827;BME280;35715;51.570;6.036;2022-07-10T08:12:55;102532.50;;;19.36;59.23
49827;BME280;35715;51.570;6.036;2022-07-10T08:15:50;102538.47;;;19.19;59.51
49827;BME280;35715;51.570;6.036;2022-07-10T08:18:15;102538.84;;;19.25;59.45
49827;BME280;35715;51.570;6.036;2022-07-10T08:20:41;102537.94;;;19.24;59.23
49827;BME280;35715;51.570;6.036;2022-07-10T08:23:06;102525.38;;;19.19;59.79
49827;BME280;35715;51.570;6.036;2022-07-10T08:25:45;102532.41;;;19.05;60.10
49827;BME280;35715;51.570;6.036;2022-07-10T08:28:10;102535.94;;;19.05;60.30
49827;BME280;35715;51.570;6.036;2022-07-10T08:30:37;102536.03;;;19.07;60.15
49827;BME280;35715;51.570;6.036;2022-07-10T08:33:03;102538.97;;;18.98;61.13
49827;BME280;35715;51.570;6.036;2022-07-10T08:35:31;102538.97;;;18.98;61.81
49827;BME280;35715;51.570;6.036;2022-07-10T08:37:57;102538.28;;;19.01;61.56
49827;BME280;35715;51.570;6.036;2022-07-10T08:40:23;102540.63;;;19.11;61.48
49827;BME280;35715;51.570;6.036;2022-07-10T08:42:48;102541.88;;;19.18;61.10
49827;BME280;35715;51.570;6.036;2022-07-10T08:45:14;102537.38;;;19.30;61.20
49827;BME280;35715;51.570;6.036;2022-07-10T08:47:40;102541.63;;;19.43;61.04
49827;BME280;35715;51.570;6.036;2022-07-10T08:50:23;102537.47;;;19.46;60.34
49827;BME280;35715;51.570;6.036;2022-07-10T08:52:59;102527.63;;;19.57;60.32
49827;BME280;35715;51.570;6.036;2022-07-10T08:55:27;102535.81;;;19.63;59.72
49827;BME280;35715;51.570;6.036;2022-07-10T08:57:54;102531.94;;;19.72;59.24
49827;BME280;35715;51.570;6.036;2022-07-10T09:00:23;102531.69;;;19.67;59.23
49827;BME280;35715;51.570;6.036;2022-07-10T09:02:49;102531.34;;;19.61;58.83
49827;BME280;35715;51.570;6.036;2022-07-10T09:05:24;102531.25;;;19.44;59.49
49827;BME280;35715;51.570;6.036;2022-07-10T09:07:50;102529.44;;;19.43;59.74
49827;BME280;35715;51.570;6.036;2022-07-10T09:10:20;102535.22;;;19.38;59.16
49827;BME280;35715;51.570;6.036;2022-07-10T09:12:51;102527.34;;;19.23;59.19
49827;BME280;35715;51.570;6.036;2022-07-10T09:15:25;102530.81;;;19.22;59.68
49827;BME280;35715;51.570;6.036;2022-07-10T09:17:56;102530.81;;;19.22;60.20
49827;BME280;35715;51.570;6.036;2022-07-10T09:20:32;102531.69;;;19.22;60.13
49827;BME280;35715;51.570;6.036;2022-07-10T09:23:20;102529.88;;;19.36;59.75
49827;BME280;35715;51.570;6.036;2022-07-10T09:25:52;102516.44;;;19.60;59.38
49827;BME280;35715;51.570;6.036;2022-07-10T09:28:19;102517.13;;;19.72;59.00
49827;BME280;35715;51.570;6.036;2022-07-10T09:30:45;102522.03;;;19.81;58.76
49827;BME280;35715;51.570;6.036;2022-07-10T09:33:16;102518.03;;;19.88;58.32
49827;BME280;35715;51.570;6.036;2022-07-10T09:38:51;102501.75;;;19.93;58.30
49827;BME280;35715;51.570;6.036;2022-07-10T09:41:22;102498.94;;;20.05;58.53
49827;BME280;35715;51.570;6.036;2022-07-10T09:43:59;102493.47;;;20.17;58.05
49827;BME280;35715;51.570;6.036;2022-07-10T09:46:49;102495.75;;;20.11;57.56
49827;BME280;35715;51.570;6.036;2022-07-10T09:49:15;102486.88;;;20.09;57.45
49827;BME280;35715;51.570;6.036;2022-07-10T09:51:43;102494.50;;;20.04;57.92
49827;BME280;35715;51.570;6.036;2022-07-10T09:54:10;102493.25;;;19.97;57.91
49827;BME280;35715;51.570;6.036;2022-07-10T09:56:59;102487.47;;;20.03;57.92
49827;BME280;35715;51.570;6.036;2022-07-10T09:59:31;102479.44;;;21.69;55.28
49827;BME280;35715;51.570;6.036;2022-07-10T10:01:59;102482.34;;;22.31;52.60
49827;BME280;35715;51.570;6.036;2022-07-10T10:04:27;102480.59;;;22.90;51.46
49827;BME280;35715;51.570;6.036;2022-07-10T10:07:09;102480.38;;;22.85;50.81
49827;BME280;35715;51.570;6.036;2022-07-10T10:09:41;102475.88;;;22.42;51.62
49827;BME280;35715;51.570;6.036;2022-07-10T10:12:21;102479.59;;;22.10;52.10
49827;BME280;35715;51.570;6.036;2022-07-10T10:14:50;102482.13;;;21.89;52.68
49827;BME280;35715;51.570;6.036;2022-07-10T10:17:20;102471.56;;;21.69;52.87
49827;BME280;35715;51.570;6.036;2022-07-10T10:19:47;102482.16;;;21.53;53.20
49827;BME280;35715;51.570;6.036;2022-07-10T10:22:33;102475.38;;;21.40;54.08
49827;BME280;35715;51.570;6.036;2022-07-10T10:24:59;102481.88;;;21.30;54.32
49827;BME280;35715;51.570;6.036;2022-07-10T10:27:32;102484.66;;;21.33;54.31
49827;BME280;35715;51.570;6.036;2022-07-10T10:29:59;102483.47;;;21.44;54.01
49827;BME280;35715;51.570;6.036;2022-07-10T10:32:27;102480.84;;;21.44;54.22
49827;BME280;35715;51.570;6.036;2022-07-10T10:34:53;102479.31;;;21.32;54.27
49827;BME280;35715;51.570;6.036;2022-07-10T10:37:44;102479.09;;;21.09;54.38
49827;BME280;35715;51.570;6.036;2022-07-10T10:40:32;102473.19;;;20.97;53.89
49827;BME280;35715;51.570;6.036;2022-07-10T10:43:22;102478.16;;;20.74;54.58
49827;BME280;35715;51.570;6.036;2022-07-10T10:45:48;102469.69;;;20.47;55.55
49827;BME280;35715;51.570;6.036;2022-07-10T10:48:17;102468.56;;;20.58;55.58
49827;BME280;35715;51.570;6.036;2022-07-10T10:58:35;102464.78;;;21.20;54.39
49827;BME280;35715;51.570;6.036;2022-07-10T11:06:45;102458.75;;;21.95;52.49
49827;BME280;35715;51.570;6.036;2022-07-10T11:09:40;102459.75;;;21.97;51.98
49827;BME280;35715;51.570;6.036;2022-07-10T11:12:08;102452.22;;;22.05;52.50
49827;BME280;35715;51.570;6.036;2022-07-10T11:14:39;102448.34;;;22.16;52.93
49827;BME280;35715;51.570;6.036;2022-07-10T11:17:13;102454.91;;;22.44;51.89
49827;BME280;35715;51.570;6.036;2022-07-10T11:19:39;102447.97;;;22.86;51.21
49827;BME280;35715;51.570;6.036;2022-07-10T11:28:05;102443.69;;;24.20;48.55
49827;BME280;35715;51.570;6.036;2022-07-10T11:30:22;102445.81;;;24.30;47.00
49827;BME280;35715;51.570;6.036;2022-07-10T11:32:47;102439.25;;;23.96;47.07
49827;BME280;35715;51.570;6.036;2022-07-10T11:35:16;102437.28;;;23.90;47.59
49827;BME280;35715;51.570;6.036;2022-07-10T11:37:52;102434.59;;;23.89;47.35
49827;BME280;35715;51.570;6.036;2022-07-10T11:40:18;102425.47;;;24.03;47.22
49827;BME280;35715;51.570;6.036;2022-07-10T11:42:56;102423.38;;;23.95;46.75
49827;BME280;35715;51.570;6.036;2022-07-10T11:45:30;102430.41;;;23.94;46.81
49827;BME280;35715;51.570;6.036;2022-07-10T11:47:57;102419.75;;;23.91;46.92
49827;BME280;35715;51.570;6.036;2022-07-10T11:50:23;102415.88;;;23.83;47.64
49827;BME280;35715;51.570;6.036;2022-07-10T11:52:50;102423.25;;;23.69;48.54
49827;BME280;35715;51.570;6.036;2022-07-10T11:55:21;102424.63;;;23.59;47.84
49827;BME280;35715;51.570;6.036;2022-07-10T11:57:48;102419.44;;;23.61;46.94
49827;BME280;35715;51.570;6.036;2022-07-10T12:00:23;102418.09;;;23.49;47.41
49827;BME280;35715;51.570;6.036;2022-07-10T12:02:51;102421.53;;;23.47;47.58
49827;BME280;35715;51.570;6.036;2022-07-10T12:05:43;102414.28;;;23.41;47.25
49827;BME280;35715;51.570;6.036;2022-07-10T12:08:08;102414.22;;;23.39;47.58
49827;BME280;35715;51.570;6.036;2022-07-10T12:10:34;102418.16;;;23.51;47.60
49827;BME280;35715;51.570;6.036;2022-07-10T12:13:13;102418.75;;;23.66;46.93
49827;BME280;35715;51.570;6.036;2022-07-10T12:15:41;102425.28;;;23.76;47.38
49827;BME280;35715;51.570;6.036;2022-07-10T12:18:09;102422.41;;;23.70;48.02
49827;BME280;35715;51.570;6.036;2022-07-10T12:20:39;102423.84;;;23.62;47.53
49827;BME280;35715;51.570;6.036;2022-07-10T12:23:07;102420.44;;;23.42;47.53
49827;BME280;35715;51.570;6.036;2022-07-10T12:25:35;102425.72;;;23.20;47.79
49827;BME280;35715;51.570;6.036;2022-07-10T12:28:00;102428.56;;;23.06;48.87
49827;BME280;35715;51.570;6.036;2022-07-10T12:30:40;102434.25;;;22.94;48.52
49827;BME280;35715;51.570;6.036;2022-07-10T12:33:13;102426.72;;;22.82;49.22
49827;BME280;35715;51.570;6.036;2022-07-10T12:35:58;102434.84;;;22.67;49.31
49827;BME280;35715;51.570;6.036;2022-07-10T12:38:29;102435.16;;;22.54;50.42
49827;BME280;35715;51.570;6.036;2022-07-10T12:41:13;102440.69;;;22.40;50.32
49827;BME280;35715;51.570;6.036;2022-07-10T12:43:39;102438.06;;;22.40;51.77
49827;BME280;35715;51.570;6.036;2022-07-10T12:46:21;102442.69;;;22.26;51.72
49827;BME280;35715;51.570;6.036;2022-07-10T12:49:02;102438.81;;;22.18;52.00
49827;BME280;35715;51.570;6.036;2022-07-10T12:51:53;102439.56;;;22.15;52.72
49827;BME280;35715;51.570;6.036;2022-07-10T12:57:58;102442.09;;;21.94;54.17
49827;BME280;35715;51.570;6.036;2022-07-10T13:00:30;102427.50;;;22.01;55.19
49827;BME280;35715;51.570;6.036;2022-07-10T13:03:06;102429.72;;;22.11;55.25
49827;BME280;35715;51.570;6.036;2022-07-10T13:08:20;102431.19;;;22.24;54.20
49827;BME280;35715;51.570;6.036;2022-07-10T13:10:58;102429.59;;;22.28;53.48
49827;BME280;35715;51.570;6.036;2022-07-10T13:13:24;102429.59;;;22.28;53.70
49827;BME280;35715;51.570;6.036;2022-07-10T13:16:06;102425.53;;;22.15;53.24
49827;BME280;35715;51.570;6.036;2022-07-10T13:18:31;102427.09;;;22.11;53.66
49827;BME280;35715;51.570;6.036;2022-07-10T13:20:57;102424.53;;;22.13;53.46
49827;BME280;35715;51.570;6.036;2022-07-10T13:23:23;102425.88;;;22.23;54.10
49827;BME280;35715;51.570;6.036;2022-07-10T13:25:55;102417.78;;;22.38;53.14